createdAt,value
2022-08-04T00:00:13.071Z,17.90
2022-08-04T00:02:56.499Z,17.80
2022-08-04T00:05:37.055Z,17.80
2022-08-04T00:08:16.678Z,17.80
2022-08-04T00:10:50.369Z,17.80
2022-08-04T00:13:25.113Z,17.80
2022-08-04T00:15:54.628Z,17.80
2022-08-04T00:18:27.947Z,17.80
2022-08-04T00:21:00.479Z,17.70
2022-08-04T00:24:10.598Z,17.70
2022-08-04T00:26:19.657Z,17.70
2022-08-04T00:28:49.909Z,17.70
2022-08-04T00:31:19.094Z,17.70
2022-08-04T00:34:07.462Z,17.70
2022-08-04T00:36:36.027Z,17.60
2022-08-04T00:39:04.411Z,17.60
2022-08-04T00:41:56.087Z,17.60
2022-08-04T00:44:34.269Z,17.50
2022-08-04T00:47:12.444Z,17.50
2022-08-04T00:50:19.996Z,17.40
2022-08-04T00:53:09.302Z,17.40
2022-08-04T00:56:06.495Z,17.40
2022-08-04T00:58:44.708Z,17.40
2022-08-04T01:01:37.688Z,17.40
2022-08-04T01:04:16.370Z,17.40
2022-08-04T01:07:08.372Z,17.40
2022-08-04T01:09:49.041Z,17.40
2022-08-04T01:12:34.032Z,17.40
2022-08-04T01:15:07.766Z,17.40
2022-08-04T01:17:49.922Z,17.40
2022-08-04T01:20:22.886Z,17.40
2022-08-04T01:23:33.772Z,17.40
2022-08-04T01:26:42.585Z,17.40
2022-08-04T01:29:23.827Z,17.40
2022-08-04T01:32:02.237Z,17.40
2022-08-04T01:34:32.753Z,17.40
2022-08-04T01:37:10.078Z,17.40
2022-08-04T01:39:50.743Z,17.40
2022-08-04T01:42:31.882Z,17.30
2022-08-04T01:45:04.031Z,17.30
2022-08-04T01:47:35.313Z,17.30
2022-08-04T01:50:07.349Z,17.20
2022-08-04T01:52:37.329Z,17.20
2022-08-04T01:55:09.467Z,17.20
2022-08-04T01:57:42.433Z,17.10
2022-08-04T02:00:14.332Z,17.20
2022-08-04T02:02:42.846Z,17.10
2022-08-04T02:05:12.460Z,17.00
2022-08-04T02:08:00.622Z,17.00
2022-08-04T02:10:31.627Z,17.00
2022-08-04T02:13:12.163Z,16.90
2022-08-04T02:15:49.050Z,16.90
2022-08-04T02:18:25.860Z,16.90
2022-08-04T02:20:59.583Z,16.80
2022-08-04T02:23:35.142Z,16.80
2022-08-04T02:26:05.106Z,16.80
2022-08-04T02:28:39.192Z,16.70
2022-08-04T02:31:20.076Z,16.70
2022-08-04T02:33:56.491Z,16.60
2022-08-04T02:36:31.800Z,16.60
2022-08-04T02:39:02.750Z,16.50
2022-08-04T02:41:32.499Z,16.50
2022-08-04T02:44:02.588Z,16.50
2022-08-04T02:46:34.659Z,16.40
2022-08-04T02:49:04.864Z,16.40
2022-08-04T02:51:36.208Z,16.40
2022-08-04T02:54:06.840Z,16.40
2022-08-04T02:56:37.453Z,16.30
2022-08-04T02:59:08.953Z,16.30
2022-08-04T03:01:56.523Z,16.20
2022-08-04T03:04:44.290Z,16.20
2022-08-04T03:07:44.463Z,16.20
2022-08-04T03:10:38.742Z,16.10
2022-08-04T03:13:30.143Z,16.10
2022-08-04T03:16:38.905Z,16.10
2022-08-04T03:19:36.808Z,16.10
2022-08-04T03:22:30.584Z,16.00
2022-08-04T03:25:32.396Z,16.00
2022-08-04T03:28:28.265Z,16.00
2022-08-04T03:31:18.873Z,15.90
2022-08-04T03:34:06.045Z,15.90
2022-08-04T03:37:03.012Z,15.90
2022-08-04T03:40:24.548Z,15.90
2022-08-04T03:43:57.653Z,15.80
2022-08-04T03:47:11.369Z,15.80
2022-08-04T03:50:09.893Z,15.80
2022-08-04T03:53:11.828Z,15.80
2022-08-04T03:56:12.318Z,15.80
2022-08-04T03:59:25.062Z,15.80
2022-08-04T04:02:21.964Z,15.80
2022-08-04T04:05:24.539Z,15.80
2022-08-04T04:08:27.818Z,15.80
2022-08-04T04:11:20.968Z,15.80
2022-08-04T04:14:17.067Z,15.80
2022-08-04T04:17:09.922Z,15.80
2022-08-04T04:20:15.002Z,15.80
2022-08-04T04:23:01.594Z,15.90
2022-08-04T04:25:40.932Z,15.90
2022-08-04T04:28:44.661Z,15.90
2022-08-04T04:31:39.336Z,16.00
2022-08-04T04:34:17.932Z,16.10
2022-08-04T04:36:56.859Z,16.20
2022-08-04T04:39:33.768Z,16.30
2022-08-04T04:42:24.847Z,16.40
2022-08-04T04:45:06.794Z,16.50
2022-08-04T04:48:08.052Z,16.70
2022-08-04T04:50:48.587Z,16.80
2022-08-04T04:53:25.379Z,17.00
2022-08-04T04:56:04.688Z,17.10
2022-08-04T04:58:37.025Z,17.30
2022-08-04T05:01:24.167Z,17.50
2022-08-04T05:04:12.919Z,17.70
2022-08-04T05:06:55.480Z,18.00
2022-08-04T05:09:33.830Z,18.20
2022-08-04T05:14:31.988Z,18.50
2022-08-04T05:15:36.835Z,18.80
2022-08-04T05:18:08.422Z,19.00
2022-08-04T05:20:40.345Z,19.20
2022-08-04T05:23:14.946Z,19.50
2022-08-04T05:28:35.184Z,20.30
2022-08-04T05:31:12.115Z,20.40
2022-08-04T05:33:44.574Z,20.50
2022-08-04T05:36:32.660Z,20.60
2022-08-04T05:39:08.529Z,20.70
2022-08-04T05:41:45.276Z,20.80
2022-08-04T05:44:16.271Z,21.00
2022-08-04T05:46:54.089Z,21.20
2022-08-04T05:49:24.270Z,21.30
2022-08-04T05:51:53.704Z,21.40
2022-08-04T05:54:22.939Z,21.60
2022-08-04T05:56:52.049Z,21.80
2022-08-04T05:59:21.775Z,22.00
2022-08-04T06:01:54.927Z,22.10
2022-08-04T06:04:25.976Z,22.40
2022-08-04T06:06:55.356Z,22.60
2022-08-04T06:09:23.440Z,22.90
2022-08-04T06:12:00.730Z,23.10
2022-08-04T06:14:37.036Z,23.40
2022-08-04T06:18:33.429Z,23.60
2022-08-04T06:20:19.305Z,23.80
2022-08-04T06:22:48.962Z,24.00
2022-08-04T06:25:20.624Z,24.30
2022-08-04T06:27:50.449Z,24.70
2022-08-04T06:30:20.157Z,24.90
2022-08-04T06:33:03.458Z,25.20
2022-08-04T06:35:34.338Z,25.40
2022-08-04T06:38:03.826Z,25.60
2022-08-04T06:40:34.010Z,25.80
2022-08-04T06:43:03.241Z,26.00
2022-08-04T06:45:32.136Z,26.30
2022-08-04T06:48:02.031Z,26.60
2022-08-04T06:51:30.580Z,26.90
2022-08-04T06:53:20.489Z,27.00
2022-08-04T06:55:50.234Z,27.30
2022-08-04T06:58:20.438Z,27.40
2022-08-04T07:00:49.609Z,27.40
2022-08-04T07:03:23.047Z,27.50
2022-08-04T07:05:53.066Z,27.60
2022-08-04T07:08:22.073Z,27.60
2022-08-04T07:10:50.348Z,27.80
2022-08-04T07:13:20.185Z,27.90
2022-08-04T07:15:49.545Z,28.10
2022-08-04T07:18:18.012Z,28.20
2022-08-04T07:20:48.028Z,28.40
2022-08-04T07:23:19.728Z,28.50
2022-08-04T07:26:11.210Z,28.50
2022-08-04T07:28:41.787Z,28.50
2022-08-04T07:31:33.326Z,28.70
2022-08-04T07:34:17.323Z,28.80
2022-08-04T07:36:55.449Z,29.00
2022-08-04T07:39:27.424Z,29.10
2022-08-04T07:41:57.494Z,29.30
2022-08-04T07:44:25.941Z,29.40
2022-08-04T07:46:54.469Z,29.50
2022-08-04T07:49:56.301Z,29.60
2022-08-04T07:52:12.555Z,29.70
2022-08-04T07:54:41.380Z,29.80
2022-08-04T07:57:09.556Z,30.00
2022-08-04T07:59:50.362Z,30.20
2022-08-04T08:02:21.471Z,30.40
2022-08-04T08:04:50.247Z,30.60
2022-08-04T08:07:20.867Z,30.80
2022-08-04T08:09:49.287Z,30.90
2022-08-04T08:12:37.648Z,30.90
2022-08-04T08:15:06.702Z,31.00
2022-08-04T08:17:57.876Z,31.20
2022-08-04T08:20:29.209Z,31.20
2022-08-04T08:22:59.737Z,31.30
2022-08-04T08:25:28.025Z,31.50
2022-08-04T08:27:56.826Z,31.60
2022-08-04T08:30:31.736Z,31.80
2022-08-04T08:33:02.563Z,31.90
2022-08-04T08:35:39.782Z,32.00
2022-08-04T08:38:34.614Z,32.10
2022-08-04T08:41:22.264Z,32.30
2022-08-04T08:44:07.638Z,32.30
2022-08-04T08:46:52.379Z,32.50
2022-08-04T08:50:04.007Z,32.60
2022-08-04T08:53:01.752Z,32.80
2022-08-04T08:55:41.773Z,32.90
2022-08-04T08:58:41.468Z,33.00
2022-08-04T09:01:24.223Z,33.00
2022-08-04T09:04:23.530Z,33.10
2022-08-04T09:07:24.593Z,33.20
2022-08-04T09:10:07.388Z,33.30
2022-08-04T09:12:46.371Z,33.50
2022-08-04T09:15:16.913Z,33.60
2022-08-04T09:17:51.097Z,33.70
2022-08-04T09:20:26.684Z,33.80
2022-08-04T09:23:07.999Z,33.80
2022-08-04T09:25:42.123Z,33.80
2022-08-04T09:28:43.719Z,33.80
2022-08-04T09:31:14.507Z,33.80
2022-08-04T09:33:50.338Z,33.80
2022-08-04T09:36:33.129Z,33.90
2022-08-04T09:39:10.710Z,33.90
2022-08-04T09:41:49.332Z,33.90
2022-08-04T09:44:50.228Z,33.90
2022-08-04T09:47:25.975Z,33.90
2022-08-04T09:50:17.584Z,34.00
2022-08-04T09:52:51.206Z,34.10
2022-08-04T09:55:32.218Z,34.10
2022-08-04T09:58:06.677Z,33.90
2022-08-04T10:00:45.101Z,33.80
2022-08-04T10:03:19.903Z,33.80
2022-08-04T10:06:01.936Z,33.70
2022-08-04T10:08:45.358Z,33.70
2022-08-04T10:11:19.796Z,33.70
2022-08-04T10:13:54.618Z,33.70
2022-08-04T10:16:39.357Z,33.50
2022-08-04T10:19:19.638Z,33.40
2022-08-04T10:22:27.064Z,33.40
2022-08-04T10:24:57.157Z,33.50
2022-08-04T10:27:31.540Z,33.60
2022-08-04T10:30:04.265Z,33.60
2022-08-04T10:32:43.114Z,33.70
2022-08-04T10:35:15.146Z,33.80
2022-08-04T10:38:01.155Z,33.80
2022-08-04T10:40:37.750Z,33.80
2022-08-04T10:43:22.674Z,33.70
2022-08-04T10:45:57.945Z,33.70
2022-08-04T10:48:37.528Z,33.60
2022-08-04T10:51:20.058Z,33.70
2022-08-04T10:53:54.038Z,33.60
2022-08-04T10:56:30.855Z,33.50
2022-08-04T10:59:03.423Z,33.40
2022-08-04T11:01:50.644Z,33.50
2022-08-04T11:04:29.222Z,33.60
2022-08-04T11:06:59.510Z,33.50
2022-08-04T11:09:29.992Z,33.60
2022-08-04T11:12:04.764Z,33.60
2022-08-04T11:14:38.916Z,33.50
2022-08-04T11:17:12.391Z,33.60
2022-08-04T11:19:53.649Z,33.70
2022-08-04T11:22:27.232Z,33.70
2022-08-04T11:25:01.232Z,33.70
2022-08-04T11:27:36.853Z,33.80
2022-08-04T11:30:07.284Z,33.80
2022-08-04T11:32:41.046Z,33.90
2022-08-04T11:35:17.511Z,33.90
2022-08-04T11:37:50.659Z,34.00
2022-08-04T11:40:25.617Z,34.10
2022-08-04T11:42:57.860Z,34.20
2022-08-04T11:45:32.486Z,34.30
2022-08-04T11:48:05.736Z,34.40
2022-08-04T11:50:41.757Z,34.50
2022-08-04T11:53:15.688Z,34.60
2022-08-04T11:56:07.077Z,34.70
2022-08-04T11:58:33.548Z,34.70
2022-08-04T12:01:09.890Z,34.70
2022-08-04T12:04:03.757Z,34.60
2022-08-04T12:06:40.226Z,34.60
2022-08-04T12:09:23.788Z,34.90
2022-08-04T12:12:01.504Z,34.90
2022-08-04T12:14:44.411Z,35.00
2022-08-04T12:17:17.165Z,35.00
2022-08-04T12:20:04.213Z,34.90
2022-08-04T12:22:49.103Z,34.80
2022-08-04T12:25:22.749Z,34.80
2022-08-04T12:27:56.493Z,34.80
2022-08-04T12:30:57.733Z,35.00
2022-08-04T12:33:23.210Z,35.10
2022-08-04T12:36:21.456Z,35.30
2022-08-04T12:39:04.261Z,35.40
2022-08-04T12:41:39.625Z,35.50
2022-08-04T12:44:37.414Z,35.60
2022-08-04T12:47:27.842Z,35.60
2022-08-04T12:50:00.130Z,35.70
2022-08-04T12:53:01.016Z,35.60
2022-08-04T12:55:23.916Z,35.80
2022-08-04T12:57:54.743Z,35.90
2022-08-04T13:00:31.336Z,36.10
2022-08-04T13:03:09.873Z,36.10
2022-08-04T13:05:40.883Z,36.20
2022-08-04T13:08:11.250Z,36.40
2022-08-04T13:10:43.457Z,36.40
2022-08-04T13:13:18.005Z,36.50
2022-08-04T13:15:57.621Z,36.60
2022-08-04T13:18:30.445Z,36.90
2022-08-04T13:21:20.838Z,37.10
2022-08-04T13:24:19.737Z,37.30
2022-08-04T13:26:55.160Z,37.40
2022-08-04T13:29:58.099Z,37.50
2022-08-04T13:32:18.633Z,37.50
2022-08-04T13:34:49.594Z,37.40
2022-08-04T13:37:23.223Z,37.30
2022-08-04T13:39:55.177Z,37.40
2022-08-04T13:42:27.012Z,37.50
2022-08-04T13:44:58.115Z,37.60
2022-08-04T13:47:30.163Z,37.60
2022-08-04T13:50:12.155Z,37.70
2022-08-04T13:52:42.085Z,38.00
2022-08-04T13:55:19.113Z,37.70
2022-08-04T13:57:52.258Z,37.80
2022-08-04T14:00:30.241Z,38.00
2022-08-04T14:03:03.326Z,38.20
2022-08-04T14:05:58.877Z,38.10
2022-08-04T14:08:26.464Z,38.10
2022-08-04T14:10:58.267Z,38.10
2022-08-04T14:13:41.039Z,38.20
2022-08-04T14:16:21.222Z,38.30
2022-08-04T14:18:58.303Z,38.20
2022-08-04T14:21:26.777Z,38.10
2022-08-04T14:23:56.537Z,38.00
2022-08-04T14:26:31.374Z,37.80
2022-08-04T14:29:27.345Z,37.60
2022-08-04T14:32:04.402Z,37.40
2022-08-04T14:34:41.550Z,37.50
2022-08-04T14:37:16.762Z,37.30
2022-08-04T14:40:18.744Z,37.30
2022-08-04T14:42:59.010Z,36.90
2022-08-04T14:45:34.022Z,36.50
2022-08-04T14:48:03.266Z,36.50
2022-08-04T14:50:37.130Z,36.60
2022-08-04T14:53:07.426Z,36.80
2022-08-04T14:55:35.838Z,37.00
2022-08-04T14:58:36.761Z,36.90
2022-08-04T15:00:56.825Z,36.80
2022-08-04T15:03:25.783Z,36.70
2022-08-04T15:06:00.857Z,36.40
2022-08-04T15:08:34.574Z,36.30
2022-08-04T15:11:03.684Z,36.20
2022-08-04T15:13:33.448Z,36.10
2022-08-04T15:16:06.678Z,36.30
2022-08-04T15:18:39.076Z,36.30
2022-08-04T15:21:09.486Z,36.10
2022-08-04T15:23:39.193Z,36.00
2022-08-04T15:26:13.189Z,36.10
2022-08-04T15:28:47.228Z,36.20
2022-08-04T15:32:04.436Z,36.30
2022-08-04T15:34:07.963Z,36.30
2022-08-04T15:36:56.854Z,36.30
2022-08-04T15:39:39.300Z,36.20
2022-08-04T15:42:20.858Z,36.20
2022-08-04T15:45:21.453Z,36.30
2022-08-04T15:48:33.996Z,36.30
2022-08-04T15:51:07.098Z,36.20
2022-08-04T15:54:21.163Z,36.10
2022-08-04T15:57:01.543Z,36.00
2022-08-04T16:00:00.505Z,35.80
2022-08-04T16:02:49.487Z,35.80
2022-08-04T16:05:39.615Z,35.70
2022-08-04T16:08:27.800Z,35.60
2022-08-04T16:10:55.836Z,35.50
2022-08-04T16:13:25.089Z,35.40
2022-08-04T16:15:55.457Z,35.40
2022-08-04T16:18:43.621Z,35.20
2022-08-04T16:21:23.923Z,35.10
2022-08-04T16:24:10.720Z,34.80
2022-08-04T16:26:54.821Z,34.60
2022-08-04T16:29:42.795Z,34.30
2022-08-04T16:32:19.262Z,34.10
2022-08-04T16:34:55.450Z,34.00
2022-08-04T16:37:30.453Z,34.10
2022-08-04T16:40:36.604Z,34.10
2022-08-04T16:43:08.991Z,34.20
2022-08-04T16:45:48.541Z,34.30
2022-08-04T16:48:17.906Z,34.40
2022-08-04T16:51:05.851Z,34.40
2022-08-04T16:54:02.623Z,34.40
2022-08-04T16:56:35.417Z,34.30
2022-08-04T16:59:09.110Z,34.40
2022-08-04T17:01:37.826Z,34.40
2022-08-04T17:04:06.988Z,34.40
2022-08-04T17:06:37.538Z,34.40
2022-08-04T17:09:08.305Z,34.30
2022-08-04T17:11:38.020Z,34.20
2022-08-04T17:14:06.686Z,34.20
2022-08-04T17:16:37.035Z,34.10
2022-08-04T17:19:06.478Z,34.00
2022-08-04T17:21:38.003Z,33.90
2022-08-04T17:24:15.998Z,33.70
2022-08-04T17:26:51.962Z,33.60
2022-08-04T17:29:43.125Z,33.50
2022-08-04T17:32:18.778Z,33.30
2022-08-04T17:34:51.084Z,33.20
2022-08-04T17:37:38.395Z,33.00
2022-08-04T17:40:10.664Z,32.80
2022-08-04T17:42:41.506Z,32.80
2022-08-04T17:48:02.952Z,32.50
2022-08-04T17:50:35.671Z,32.20
2022-08-04T17:53:12.055Z,31.90
2022-08-04T17:55:46.906Z,31.70
2022-08-04T17:58:20.903Z,31.40
2022-08-04T18:01:16.684Z,31.20
2022-08-04T18:03:51.577Z,30.90
2022-08-04T18:06:21.994Z,30.60
2022-08-04T18:08:57.518Z,30.30
2022-08-04T18:11:29.834Z,30.10
2022-08-04T18:14:10.899Z,29.90
2022-08-04T18:16:46.260Z,29.70
2022-08-04T18:19:18.862Z,29.40
2022-08-04T18:21:59.745Z,29.20
2022-08-04T18:24:35.708Z,29.10
2022-08-04T18:27:20.485Z,28.90
2022-08-04T18:29:56.453Z,28.70
2022-08-04T18:32:44.006Z,28.50
2022-08-04T18:36:31.373Z,28.30
2022-08-04T18:38:22.329Z,28.10
2022-08-04T18:40:53.581Z,27.90
2022-08-04T18:43:28.005Z,27.70
2022-08-04T18:45:59.585Z,27.50
2022-08-04T18:48:35.968Z,27.40
2022-08-04T18:51:22.423Z,27.20
2022-08-04T18:53:58.608Z,27.00
2022-08-04T18:56:29.595Z,26.80
2022-08-04T18:58:59.821Z,26.70
2022-08-04T19:01:29.600Z,26.60
2022-08-04T19:04:00.110Z,26.40
2022-08-04T19:06:28.296Z,26.20
2022-08-04T19:08:58.270Z,26.10
2022-08-04T19:11:53.363Z,25.90
2022-08-04T19:14:14.432Z,25.80
2022-08-04T19:16:45.669Z,25.70
2022-08-04T19:19:17.928Z,25.50
2022-08-04T19:22:01.590Z,25.40
2022-08-04T19:24:34.553Z,25.30
2022-08-04T19:27:07.599Z,25.10
2022-08-04T19:29:41.192Z,25.00
2022-08-04T19:32:14.988Z,24.90
2022-08-04T19:34:47.451Z,24.80
2022-08-04T19:37:57.097Z,24.70
2022-08-04T19:40:06.825Z,24.60
2022-08-04T19:42:37.813Z,24.40
2022-08-04T19:45:06.951Z,24.40
2022-08-04T19:48:17.189Z,24.30
2022-08-04T19:50:24.814Z,24.10
2022-08-04T19:52:53.249Z,24.00
2022-08-04T19:55:22.978Z,23.90
2022-08-04T19:58:08.276Z,23.80
2022-08-04T20:00:37.631Z,23.70
2022-08-04T20:03:11.433Z,23.60
2022-08-04T20:05:53.290Z,23.40
2022-08-04T20:08:23.705Z,23.40
2022-08-04T20:10:52.704Z,23.30
2022-08-04T20:13:25.196Z,23.20
2022-08-04T20:15:59.152Z,23.10
2022-08-04T20:18:54.621Z,23.10
2022-08-04T20:21:24.251Z,23.00
2022-08-04T20:24:38.679Z,23.00
2022-08-04T20:26:53.510Z,22.90
2022-08-04T20:29:40.144Z,22.90
2022-08-04T20:32:09.695Z,22.80
2022-08-04T20:34:38.014Z,22.80
2022-08-04T20:37:10.569Z,22.70
2022-08-04T20:39:39.280Z,22.80
2022-08-04T20:42:07.843Z,22.80
2022-08-04T20:44:42.353Z,22.80
2022-08-04T20:47:14.392Z,22.90
2022-08-04T20:49:42.647Z,23.00
2022-08-04T20:52:20.126Z,23.40
2022-08-04T20:54:49.286Z,24.00
2022-08-04T20:57:48.199Z,24.20
2022-08-04T21:00:13.624Z,24.30
2022-08-04T21:02:41.741Z,24.30
2022-08-04T21:05:12.602Z,24.20
2022-08-04T21:07:44.048Z,24.00
2022-08-04T21:10:17.183Z,24.00
2022-08-04T21:12:50.087Z,23.90
2022-08-04T21:15:25.016Z,23.70
2022-08-04T21:17:57.600Z,23.60
2022-08-04T21:20:28.660Z,23.50
2022-08-04T21:22:59.850Z,23.40
2022-08-04T21:25:30.790Z,23.30
2022-08-04T21:28:04.397Z,23.20
2022-08-04T21:30:54.764Z,23.20
2022-08-04T21:33:49.018Z,23.10
2022-08-04T21:36:13.669Z,23.10
2022-08-04T21:41:32.658Z,22.90
2022-08-04T21:44:00.716Z,22.80
2022-08-04T21:46:31.730Z,22.70
2022-08-04T21:48:59.825Z,22.60
2022-08-04T21:51:59.890Z,22.60
2022-08-04T21:54:18.353Z,22.50
2022-08-04T21:56:51.384Z,22.50
2022-08-04T21:59:23.280Z,22.50
2022-08-04T22:01:56.503Z,22.40
2022-08-04T22:04:24.594Z,22.40
2022-08-04T22:06:52.817Z,22.30
2022-08-04T22:09:22.706Z,22.30
2022-08-04T22:11:51.930Z,22.30
2022-08-04T22:14:29.427Z,22.30
2022-08-04T22:17:02.597Z,22.30
2022-08-04T22:19:50.135Z,22.20
2022-08-04T22:22:24.381Z,22.30
2022-08-04T22:24:58.381Z,22.20
2022-08-04T22:27:47.689Z,22.10
2022-08-04T22:30:24.112Z,22.10
2022-08-04T22:32:52.533Z,22.00
2022-08-04T22:35:36.190Z,21.90
2022-08-04T22:38:22.350Z,21.90
2022-08-04T22:41:00.126Z,21.80
2022-08-04T22:43:31.933Z,21.70
2022-08-04T22:46:03.864Z,21.60
2022-08-04T22:48:33.836Z,21.60
2022-08-04T22:51:02.631Z,21.60
2022-08-04T22:53:31.528Z,21.50
2022-08-04T22:56:10.134Z,21.40
2022-08-04T22:58:40.330Z,21.40
2022-08-04T23:01:09.219Z,21.30
2022-08-04T23:03:38.635Z,21.30
2022-08-04T23:06:10.788Z,21.30
2022-08-04T23:08:43.096Z,21.30
2022-08-04T23:11:15.955Z,21.20
2022-08-04T23:13:43.980Z,21.30
2022-08-04T23:16:12.411Z,21.30
2022-08-04T23:18:41.994Z,21.30
2022-08-04T23:21:11.502Z,21.20
2022-08-04T23:23:47.714Z,21.20
2022-08-04T23:26:29.765Z,21.30
